createdAt,value
2023-03-13T00:01:45.194Z,99890.34
2023-03-13T00:04:12.025Z,99888.59
2023-03-13T00:06:39.953Z,99890.31
2023-03-13T00:09:10.871Z,99896.47
2023-03-13T00:11:37.699Z,99886.78
2023-03-13T00:14:06.387Z,99875.34
2023-03-13T00:16:35.469Z,99878.84
2023-03-13T00:19:02.368Z,99874.44
2023-03-13T00:21:30.177Z,99870.91
2023-03-13T00:24:00.104Z,99864.72
2023-03-13T00:26:28.518Z,99865.59
2023-03-13T00:28:55.948Z,99861.19
2023-03-13T00:31:29.683Z,99865.59
2023-03-13T00:34:02.160Z,99852.38
2023-03-13T00:36:33.097Z,99854.16
2023-03-13T00:39:00.185Z,99854.16
2023-03-13T00:41:30.668Z,99854.16
2023-03-13T00:43:57.738Z,99842.69
2023-03-13T00:46:28.164Z,99840.06
2023-03-13T00:48:55.394Z,99837.41
2023-03-13T00:51:24.110Z,99834.78
2023-03-13T00:53:50.984Z,99832.13
2023-03-13T00:56:20.025Z,99830.38
2023-03-13T00:58:49.093Z,99823.34
2023-03-13T01:01:27.109Z,99825.09
2023-03-13T01:04:01.083Z,99815.41
2023-03-13T01:06:31.371Z,99813.69
2023-03-13T01:08:58.714Z,99811.94
2023-03-13T01:11:29.702Z,99809.28
2023-03-13T01:13:59.934Z,99805.72
2023-03-13T01:16:29.725Z,99802.22
2023-03-13T01:19:00.972Z,99803.09
2023-03-13T01:21:28.550Z,99807.50
2023-03-13T01:23:55.889Z,99796.06
2023-03-13T01:26:23.833Z,99788.97
2023-03-13T01:28:51.407Z,99786.34
2023-03-13T01:31:25.196Z,99778.41
2023-03-13T01:33:56.363Z,99780.16
2023-03-13T01:36:23.816Z,99776.66
2023-03-13T01:38:53.595Z,99771.38
2023-03-13T01:41:22.350Z,99773.09
2023-03-13T01:43:49.284Z,99770.44
2023-03-13T01:46:27.777Z,99760.78
2023-03-13T01:49:07.878Z,99751.97
2023-03-13T01:51:42.359Z,99748.44
2023-03-13T01:54:27.123Z,99731.72
2023-03-13T01:57:04.335Z,99736.97
2023-03-13T01:59:40.576Z,99723.75
2023-03-13T02:02:08.687Z,99718.47
2023-03-13T02:04:40.031Z,99709.66
2023-03-13T02:07:17.231Z,99704.38
2023-03-13T02:09:52.005Z,99694.69
2023-03-13T02:12:41.797Z,99698.22
2023-03-13T02:15:17.036Z,99690.31
2023-03-13T02:17:45.761Z,99684.16
2023-03-13T02:20:14.902Z,99684.19
2023-03-13T02:23:00.883Z,99683.25
2023-03-13T02:25:52.373Z,99672.75
2023-03-13T02:28:27.055Z,99662.19
2023-03-13T02:30:56.835Z,99667.47
2023-03-13T02:33:32.763Z,99650.72
2023-03-13T02:36:02.249Z,99642.81
2023-03-13T02:38:31.948Z,99642.81
2023-03-13T02:41:01.590Z,99645.44
2023-03-13T02:43:34.406Z,99636.59
2023-03-13T02:46:21.842Z,99635.75
2023-03-13T02:48:55.310Z,99625.19
2023-03-13T02:51:29.596Z,99624.31
2023-03-13T02:54:05.073Z,99621.75
2023-03-13T02:56:34.714Z,99607.69
2023-03-13T02:59:01.497Z,99605.94
2023-03-13T03:01:28.294Z,99582.16
2023-03-13T03:03:55.266Z,99586.53
2023-03-13T03:06:22.060Z,99568.06
2023-03-13T03:08:48.862Z,99569.81
2023-03-13T03:11:15.773Z,99561.00
2023-03-13T03:13:42.847Z,99549.56
2023-03-13T03:16:12.738Z,99540.75
2023-03-13T03:18:39.651Z,99539.88
2023-03-13T03:21:07.305Z,99527.56
2023-03-13T03:23:36.484Z,99530.19
2023-03-13T03:26:05.035Z,99511.72
2023-03-13T03:28:32.262Z,99507.31
2023-03-13T03:31:11.552Z,99502.91
2023-03-13T03:33:39.672Z,99496.75
2023-03-13T03:36:11.000Z,99488.84
2023-03-13T03:38:39.737Z,99482.66
2023-03-13T03:41:08.124Z,99483.53
2023-03-13T03:43:35.557Z,99484.44
2023-03-13T03:46:03.043Z,99472.09
2023-03-13T03:48:29.950Z,99465.06
2023-03-13T03:50:56.993Z,99454.50
2023-03-13T03:53:24.266Z,99447.44
2023-03-13T03:55:51.097Z,99440.38
2023-03-13T03:58:17.879Z,99436.00
2023-03-13T04:00:46.634Z,99423.69
2023-03-13T04:03:14.387Z,99423.69
2023-03-13T04:05:41.256Z,99422.81
2023-03-13T04:08:09.003Z,99423.66
2023-03-13T04:10:36.324Z,99422.75
2023-03-13T04:13:03.122Z,99414.81
2023-03-13T04:15:29.948Z,99406.91
2023-03-13T04:17:56.780Z,99392.81
2023-03-13T04:20:23.605Z,99403.38
2023-03-13T04:22:50.544Z,99402.50
2023-03-13T04:25:17.874Z,99403.34
2023-03-13T04:27:44.675Z,99394.56
2023-03-13T04:30:12.348Z,99385.72
2023-03-13T04:32:39.224Z,99385.72
2023-03-13T04:35:06.407Z,99371.63
2023-03-13T04:37:33.210Z,99370.75
2023-03-13T04:39:59.979Z,99364.59
2023-03-13T04:42:26.757Z,99356.66
2023-03-13T04:44:53.581Z,99353.09
2023-03-13T04:47:20.469Z,99345.16
2023-03-13T04:49:47.251Z,99336.31
2023-03-13T04:52:14.044Z,99337.16
2023-03-13T04:54:40.809Z,99331.00
2023-03-13T04:57:07.587Z,99317.75
2023-03-13T04:59:34.407Z,99315.97
2023-03-13T05:02:01.213Z,99315.06
2023-03-13T05:04:28.008Z,99306.25
2023-03-13T05:06:54.820Z,99300.06
2023-03-13T05:09:21.643Z,99285.97
2023-03-13T05:11:50.310Z,99278.84
2023-03-13T05:14:17.144Z,99272.69
2023-03-13T05:16:43.920Z,99272.63
2023-03-13T05:19:10.725Z,99263.78
2023-03-13T05:21:37.502Z,99263.72
2023-03-13T05:24:04.590Z,99267.22
2023-03-13T05:26:31.350Z,99267.16
2023-03-13T05:28:58.188Z,99268.03
2023-03-13T05:31:25.015Z,99265.31
2023-03-13T05:33:51.815Z,99272.34
2023-03-13T05:36:18.590Z,99262.56
2023-03-13T05:38:45.799Z,99250.19
2023-03-13T05:41:12.607Z,99250.16
2023-03-13T05:43:39.377Z,99245.69
2023-03-13T05:46:06.204Z,99240.38
2023-03-13T05:48:33.034Z,99238.56
2023-03-13T05:50:59.793Z,99242.06
2023-03-13T05:53:26.732Z,99226.13
2023-03-13T05:55:53.561Z,99235.72
2023-03-13T05:58:20.344Z,99228.66
2023-03-13T06:00:48.641Z,99229.47
2023-03-13T06:03:15.432Z,99227.63
2023-03-13T06:05:42.282Z,99217.91
2023-03-13T06:08:09.111Z,99223.19
2023-03-13T06:10:35.922Z,99222.22
2023-03-13T06:13:17.156Z,99209.81
2023-03-13T06:15:55.783Z,99196.56
2023-03-13T06:18:23.461Z,99208.03
2023-03-13T06:20:50.720Z,99211.50
2023-03-13T06:23:17.522Z,99202.66
2023-03-13T06:25:48.457Z,99203.44
2023-03-13T06:28:16.053Z,99197.19
2023-03-13T06:30:43.281Z,99189.25
2023-03-13T06:33:10.599Z,99187.41
2023-03-13T06:35:55.092Z,99182.94
2023-03-13T06:38:24.304Z,99181.13
2023-03-13T06:40:51.161Z,99177.50
2023-03-13T06:43:18.322Z,99172.13
2023-03-13T06:45:45.142Z,99167.66
2023-03-13T06:48:11.960Z,99168.44
2023-03-13T06:50:40.206Z,99171.00
2023-03-13T06:53:07.387Z,99168.25
2023-03-13T06:55:34.250Z,99168.16
2023-03-13T06:58:01.036Z,99162.78
2023-03-13T07:00:28.132Z,99162.72
2023-03-13T07:02:55.375Z,99158.25
2023-03-13T07:05:22.146Z,99152.84
2023-03-13T07:07:48.996Z,99149.25
2023-03-13T07:10:17.026Z,99150.06
2023-03-13T07:12:44.458Z,99155.28
2023-03-13T07:15:11.587Z,99154.31
2023-03-13T07:17:38.507Z,99147.22
2023-03-13T07:20:09.707Z,99152.44
2023-03-13T07:22:37.856Z,99150.56
2023-03-13T07:25:05.838Z,99142.59
2023-03-13T07:27:32.724Z,99146.97
2023-03-13T07:29:59.520Z,99153.94
2023-03-13T07:32:26.377Z,99143.25
2023-03-13T07:34:53.395Z,99131.66
2023-03-13T07:37:20.155Z,99141.25
2023-03-13T07:39:46.943Z,99145.50
2023-03-13T07:42:13.783Z,99135.63
2023-03-13T07:44:40.585Z,99138.13
2023-03-13T07:47:07.786Z,99138.88
2023-03-13T07:49:39.306Z,99153.78
2023-03-13T07:52:06.115Z,99150.13
2023-03-13T07:54:32.906Z,99166.81
2023-03-13T07:57:09.212Z,99162.34
2023-03-13T07:59:36.091Z,99160.50
2023-03-13T08:02:04.293Z,99162.16
2023-03-13T08:04:44.714Z,99159.38
2023-03-13T08:07:15.130Z,99149.59
2023-03-13T08:09:42.116Z,99153.84
2023-03-13T08:12:11.633Z,99147.56
2023-03-13T08:14:38.417Z,99151.78
2023-03-13T08:17:08.372Z,99154.25
2023-03-13T08:19:35.285Z,99152.31
2023-03-13T08:22:02.926Z,99150.41
2023-03-13T08:24:32.800Z,99149.41
2023-03-13T08:26:59.730Z,99152.91
2023-03-13T08:29:26.587Z,99161.59
2023-03-13T08:31:53.537Z,99157.06
2023-03-13T08:34:20.847Z,99162.16
2023-03-13T08:36:52.753Z,99148.75
2023-03-13T08:39:21.127Z,99147.69
2023-03-13T08:41:48.438Z,99152.84
2023-03-13T08:44:18.366Z,99143.88
2023-03-13T08:46:45.477Z,99141.97
2023-03-13T08:49:13.381Z,99136.56
2023-03-13T08:51:43.756Z,99137.28
2023-03-13T08:54:10.804Z,99139.91
2023-03-13T08:56:37.751Z,99131.84
2023-03-13T08:59:10.023Z,99131.75
2023-03-13T09:01:40.031Z,99123.69
2023-03-13T09:04:07.677Z,99117.41
2023-03-13T09:06:39.158Z,99118.16
2023-03-13T09:09:07.579Z,99116.34
2023-03-13T09:11:36.546Z,99123.28
2023-03-13T09:14:07.422Z,99114.28
2023-03-13T09:16:34.956Z,99115.91
2023-03-13T09:19:05.182Z,99104.22
2023-03-13T09:31:48.468Z,99077.72
2023-03-13T09:42:51.078Z,99077.69
2023-03-13T09:49:33.862Z,99077.34
2023-03-13T09:56:52.382Z,99073.38
2023-03-13T10:00:39.953Z,99071.47
2023-03-13T10:10:17.351Z,99071.69
2023-03-13T10:12:49.543Z,99059.09
2023-03-13T10:16:06.253Z,99068.63
2023-03-13T10:19:35.684Z,99077.22
2023-03-13T10:22:43.793Z,99066.50
2023-03-13T10:26:34.203Z,99068.91
2023-03-13T10:29:30.339Z,99066.06
2023-03-13T10:32:36.842Z,99080.03
2023-03-13T10:35:37.722Z,99068.31
2023-03-13T10:38:17.258Z,99070.59
2023-03-13T10:41:18.842Z,99077.41
2023-03-13T10:44:09.279Z,99068.16
2023-03-13T10:46:50.505Z,99076.50
2023-03-13T10:49:54.534Z,99076.63
2023-03-13T10:55:32.818Z,99032.34
2023-03-13T10:58:06.558Z,99050.78
2023-03-13T11:00:41.198Z,99032.66
2023-03-13T11:03:40.325Z,99043.06
2023-03-13T11:09:43.042Z,99021.09
2023-03-13T11:12:45.784Z,99037.44
2023-03-13T11:15:38.657Z,99027.22
2023-03-13T11:18:33.574Z,99015.03
2023-03-13T11:21:31.007Z,99027.66
2023-03-13T11:24:43.403Z,99021.75
2023-03-13T11:28:11.059Z,99023.84
2023-03-13T11:31:08.282Z,99029.50
2023-03-13T11:34:21.554Z,99000.34
2023-03-13T11:37:02.314Z,99003.91
2023-03-13T11:40:16.432Z,98994.59
2023-03-13T11:43:25.325Z,98986.28
2023-03-13T11:46:26.822Z,98972.31
2023-03-13T11:49:21.871Z,98984.88
2023-03-13T11:52:29.410Z,98978.81
2023-03-13T11:55:02.485Z,98973.06
2023-03-13T11:57:40.521Z,98960.06
2023-03-13T12:01:01.561Z,98964.06
2023-03-13T12:03:52.979Z,98970.72
2023-03-13T12:06:38.279Z,98942.84
2023-03-13T12:09:17.231Z,98944.38
2023-03-13T12:11:55.464Z,98961.66
2023-03-13T12:14:31.529Z,98964.59
2023-03-13T12:17:06.574Z,98961.22
2023-03-13T12:19:42.173Z,98953.66
2023-03-13T12:22:39.157Z,98960.44
2023-03-13T12:25:33.566Z,98942.84
2023-03-13T12:28:24.156Z,98953.03
2023-03-13T12:31:31.781Z,98935.81
2023-03-13T12:34:28.002Z,98940.25
2023-03-13T12:37:02.776Z,98954.66
2023-03-13T12:39:52.592Z,98930.06
2023-03-13T12:42:46.068Z,98919.50
2023-03-13T12:45:24.250Z,98917.63
2023-03-13T12:48:41.858Z,98925.28
2023-03-13T12:51:40.556Z,98927.94
2023-03-13T12:54:36.720Z,98912.06
2023-03-13T12:57:31.751Z,98909.31
2023-03-13T13:00:10.856Z,98913.88
2023-03-13T13:02:38.132Z,98902.91
2023-03-13T13:05:05.647Z,98902.75
2023-03-13T13:07:35.757Z,98883.22
2023-03-13T13:10:11.867Z,98892.19
2023-03-13T13:12:47.106Z,98883.22
2023-03-13T13:15:27.481Z,98902.75
2023-03-13T13:18:25.244Z,98886.13
2023-03-13T13:21:06.878Z,98883.91
2023-03-13T13:23:46.915Z,98880.06
2023-03-13T13:26:29.610Z,98860.38
2023-03-13T13:29:22.316Z,98866.69
2023-03-13T13:31:51.801Z,98855.03
2023-03-13T13:34:31.028Z,98862.06
2023-03-13T13:37:25.608Z,98844.19
2023-03-13T13:39:54.182Z,98844.97
2023-03-13T13:42:32.824Z,98846.31
2023-03-13T13:45:01.060Z,98841.47
2023-03-13T13:47:33.441Z,98822.88
2023-03-13T13:50:01.138Z,98826.16
2023-03-13T13:52:39.810Z,98832.09
2023-03-13T13:55:26.468Z,98813.31
2023-03-13T13:58:24.640Z,98827.50
2023-03-13T14:00:59.341Z,98807.09
2023-03-13T14:03:32.910Z,98815.22
2023-03-13T14:06:17.813Z,98802.59
2023-03-13T14:08:46.976Z,98810.56
2023-03-13T14:11:38.827Z,98807.59
2023-03-13T14:14:20.029Z,98813.50
2023-03-13T14:16:57.170Z,98797.25
2023-03-13T14:19:39.206Z,98794.16
2023-03-13T14:22:12.178Z,98800.22
2023-03-13T14:24:46.515Z,98803.63
2023-03-13T14:27:18.454Z,98792.25
2023-03-13T14:30:11.936Z,98790.16
2023-03-13T14:32:52.608Z,98778.91
2023-03-13T14:35:23.365Z,98789.34
2023-03-13T14:37:55.888Z,98774.81
2023-03-13T14:40:29.886Z,98780.94
2023-03-13T14:43:02.261Z,98771.53
2023-03-13T14:45:35.479Z,98774.63
2023-03-13T14:48:10.229Z,98778.56
2023-03-13T14:50:37.033Z,98761.81
2023-03-13T14:53:12.836Z,98756.44
2023-03-13T14:55:41.111Z,98754.91
2023-03-13T14:58:20.136Z,98761.22
2023-03-13T15:00:48.882Z,98744.56
2023-03-13T15:03:20.222Z,98735.97
2023-03-13T15:06:07.455Z,98728.41
2023-03-13T15:08:37.960Z,98734.34
2023-03-13T15:11:28.687Z,98728.63
2023-03-13T15:13:56.608Z,98732.47
2023-03-13T15:16:24.707Z,98730.59
2023-03-13T15:18:53.633Z,98724.41
2023-03-13T15:21:30.232Z,98724.22
2023-03-13T15:24:03.472Z,98700.00
2023-03-13T15:26:30.409Z,98706.31
2023-03-13T15:28:57.370Z,98707.06
2023-03-13T15:31:28.166Z,98717.03
2023-03-13T15:33:59.226Z,98729.50
2023-03-13T15:36:28.443Z,98709.00
2023-03-13T15:38:56.606Z,98714.38
2023-03-13T15:41:24.087Z,98707.28
2023-03-13T15:43:52.658Z,98694.66
2023-03-13T15:46:23.420Z,98692.94
2023-03-13T15:48:54.024Z,98677.78
2023-03-13T15:51:20.983Z,98658.19
2023-03-13T15:53:47.977Z,98663.63
2023-03-13T15:56:18.690Z,98655.78
2023-03-13T15:58:47.845Z,98656.94
2023-03-13T16:01:17.375Z,98648.34
2023-03-13T16:03:44.611Z,98656.50
2023-03-13T16:06:20.683Z,98651.22
2023-03-13T16:08:47.702Z,98650.66
2023-03-13T16:11:16.777Z,98643.75
2023-03-13T16:13:43.968Z,98637.59
2023-03-13T16:16:20.584Z,98637.06
2023-03-13T16:18:53.888Z,98634.75
2023-03-13T16:21:25.792Z,98633.31
2023-03-13T16:23:53.255Z,98619.47
2023-03-13T16:26:27.661Z,98621.44
2023-03-13T16:28:55.191Z,98616.78
2023-03-13T16:31:28.477Z,98619.53
2023-03-13T16:33:56.635Z,98619.91
2023-03-13T16:36:31.223Z,98627.19
2023-03-13T16:39:05.441Z,98624.59
2023-03-13T16:41:32.916Z,98639.13
2023-03-13T16:43:59.742Z,98636.63
2023-03-13T16:46:37.881Z,98644.75
2023-03-13T16:49:06.116Z,98649.44
2023-03-13T16:51:33.289Z,98634.31
2023-03-13T16:54:00.620Z,98622.75
2023-03-13T16:56:37.216Z,98620.19
2023-03-13T16:59:10.159Z,98626.56
2023-03-13T17:01:36.957Z,98624.19
2023-03-13T17:04:04.387Z,98625.13
2023-03-13T17:06:42.144Z,98633.34
2023-03-13T17:09:16.305Z,98616.53
2023-03-13T17:11:44.144Z,98613.16
2023-03-13T17:14:11.655Z,98618.63
2023-03-13T17:16:45.822Z,98617.97
2023-03-13T17:19:14.332Z,98618.19
2023-03-13T17:21:41.149Z,98621.97
2023-03-13T17:24:08.261Z,98628.38
2023-03-13T17:26:38.433Z,98613.41
2023-03-13T17:29:07.029Z,98625.13
2023-03-13T17:31:38.453Z,98621.78
2023-03-13T17:34:07.203Z,98613.94
2023-03-13T17:36:35.457Z,98608.75
2023-03-13T17:39:05.618Z,98614.28
2023-03-13T17:41:38.058Z,98616.38
2023-03-13T17:44:07.723Z,98614.81
2023-03-13T17:46:47.385Z,98624.72
2023-03-13T17:49:17.368Z,98631.22
2023-03-13T17:51:46.255Z,98634.16
2023-03-13T17:54:15.650Z,98633.47
2023-03-13T17:56:44.272Z,98630.03
2023-03-13T17:59:17.156Z,98633.72
2023-03-13T18:01:44.959Z,98646.34
2023-03-13T18:04:12.998Z,98636.78
2023-03-13T18:06:45.151Z,98639.53
2023-03-13T18:09:16.792Z,98634.53
2023-03-13T18:11:43.772Z,98643.84
2023-03-13T18:14:11.359Z,98649.53
2023-03-13T18:16:47.410Z,98637.47
2023-03-13T18:19:22.464Z,98625.38
2023-03-13T18:21:52.436Z,98632.88
2023-03-13T18:24:20.031Z,98635.00
2023-03-13T18:26:49.511Z,98647.72
2023-03-13T18:29:26.339Z,98641.88
2023-03-13T18:31:55.505Z,98628.97
2023-03-13T18:34:23.775Z,98641.69
2023-03-13T18:36:51.348Z,98641.16
2023-03-13T18:39:19.964Z,98644.06
2023-03-13T18:41:48.969Z,98646.09
2023-03-13T18:44:18.816Z,98642.84
2023-03-13T18:46:45.866Z,98632.50
2023-03-13T18:49:24.584Z,98629.03
2023-03-13T18:51:53.909Z,98638.13
2023-03-13T18:54:20.778Z,98640.97
2023-03-13T18:56:47.867Z,98636.69
2023-03-13T18:59:20.624Z,98637.69
2023-03-13T19:01:48.410Z,98644.13
2023-03-13T19:04:16.371Z,98638.97
2023-03-13T19:06:45.763Z,98631.09
2023-03-13T19:09:41.713Z,98632.06
2023-03-13T19:12:05.794Z,98629.47
2023-03-13T19:14:33.250Z,98610.88
2023-03-13T19:17:00.014Z,98603.81
2023-03-13T19:19:26.945Z,98592.31
2023-03-13T19:21:56.152Z,98586.09
2023-03-13T19:24:26.491Z,98594.25
2023-03-13T19:26:58.564Z,98589.88
2023-03-13T19:29:27.866Z,98588.28
2023-03-13T19:31:55.129Z,98593.75
2023-03-13T19:34:22.049Z,98591.25
2023-03-13T19:36:50.301Z,98587.09
2023-03-13T19:39:25.438Z,98587.25
2023-03-13T19:41:54.272Z,98580.44
2023-03-13T19:44:21.749Z,98568.22
2023-03-13T19:46:48.958Z,98563.06
2023-03-13T19:49:18.802Z,98580.03
2023-03-13T19:51:46.305Z,98579.34
2023-03-13T19:54:13.658Z,98594.63
2023-03-13T19:56:46.868Z,98607.16
2023-03-13T19:59:26.742Z,98602.84
2023-03-13T20:01:55.636Z,98612.00
2023-03-13T20:04:22.700Z,98611.16
2023-03-13T20:06:49.556Z,98606.75
2023-03-13T20:09:17.977Z,98610.38
2023-03-13T20:11:45.226Z,98594.41
2023-03-13T20:14:12.436Z,98590.00
2023-03-13T20:16:39.428Z,98600.66
2023-03-13T20:19:06.396Z,98612.31
2023-03-13T20:21:36.595Z,98612.31
2023-03-13T20:24:03.926Z,98607.22
2023-03-13T20:26:30.899Z,98599.31
2023-03-13T20:28:58.313Z,98590.47
2023-03-13T20:31:29.069Z,98579.88
2023-03-13T20:33:57.887Z,98586.06
2023-03-13T20:36:25.374Z,98586.34
2023-03-13T20:38:52.772Z,98586.34
2023-03-13T20:41:25.151Z,98601.56
2023-03-13T20:43:52.800Z,98595.59
2023-03-13T20:46:20.535Z,98586.69
2023-03-13T20:48:47.393Z,98580.72
2023-03-13T20:51:14.438Z,98578.91
2023-03-13T20:53:42.520Z,98573.81
2023-03-13T20:56:11.402Z,98591.66
2023-03-13T20:58:38.902Z,98618.38
2023-03-13T21:01:07.535Z,98614.97
2023-03-13T21:03:35.920Z,98603.50
2023-03-13T21:06:16.322Z,98603.56
2023-03-13T21:08:45.565Z,98602.75
2023-03-13T21:11:22.025Z,98597.41
2023-03-13T21:13:50.069Z,98605.50
2023-03-13T21:16:18.542Z,98608.22
2023-03-13T21:18:46.322Z,98610.97
2023-03-13T21:21:19.029Z,98597.75
2023-03-13T21:23:46.877Z,98608.44
2023-03-13T21:26:14.806Z,98595.19
2023-03-13T21:28:41.919Z,98597.09
2023-03-13T21:31:19.629Z,98593.59
2023-03-13T21:33:47.231Z,98604.41
2023-03-13T21:36:16.480Z,98596.47
2023-03-13T21:38:44.578Z,98584.13
2023-03-13T21:41:14.654Z,98567.28
2023-03-13T21:43:42.815Z,98585.81
2023-03-13T21:46:12.384Z,98573.47
2023-03-13T21:48:40.728Z,98567.19
2023-03-13T21:51:09.152Z,98562.75
2023-03-13T21:53:36.804Z,98560.16
2023-03-13T21:56:04.372Z,98570.88
2023-03-13T21:58:31.311Z,98566.56
2023-03-13T22:00:59.298Z,98583.47
2023-03-13T22:03:26.659Z,98588.91
2023-03-13T22:05:53.592Z,98581.03
2023-03-13T22:08:20.498Z,98580.22
2023-03-13T22:10:49.223Z,98574.19
2023-03-13T22:13:17.337Z,98581.31
2023-03-13T22:15:46.408Z,98562.84
2023-03-13T22:18:15.340Z,98552.31
2023-03-13T22:20:43.103Z,98548.88
2023-03-13T22:23:11.515Z,98543.72
2023-03-13T22:25:40.402Z,98539.41
2023-03-13T22:28:07.402Z,98506.75
2023-03-13T22:30:34.988Z,98483.91
2023-03-13T22:33:03.791Z,98465.50
2023-03-13T22:35:30.562Z,98463.00
2023-03-13T22:37:57.352Z,98457.91
2023-03-13T22:40:24.177Z,98472.25
2023-03-13T22:42:51.677Z,98478.59
2023-03-13T22:45:19.178Z,98495.56
2023-03-13T22:47:46.031Z,98495.69
2023-03-13T22:50:13.492Z,98499.44
2023-03-13T22:52:40.677Z,98496.00
2023-03-13T22:55:08.191Z,98484.50
2023-03-13T22:57:35.034Z,98472.19
2023-03-13T23:00:01.940Z,98459.03
2023-03-13T23:02:29.158Z,98483.91
2023-03-13T23:04:58.341Z,98505.31
2023-03-13T23:07:28.423Z,98524.84
2023-03-13T23:09:56.025Z,98524.13
2023-03-13T23:12:24.274Z,98517.09
2023-03-13T23:14:52.217Z,98512.78
2023-03-13T23:17:19.079Z,98527.00
2023-03-13T23:19:45.916Z,98530.56
2023-03-13T23:22:17.639Z,98519.94
2023-03-13T23:24:44.737Z,98505.00
2023-03-13T23:27:11.794Z,98496.94
2023-03-13T23:29:38.745Z,98488.06
2023-03-13T23:32:05.642Z,98481.97
2023-03-13T23:34:32.567Z,98481.09
2023-03-13T23:36:59.652Z,98501.50
2023-03-13T23:39:26.456Z,98512.19
2023-03-13T23:41:53.237Z,98530.84
2023-03-13T23:44:22.700Z,98543.22
2023-03-13T23:46:49.541Z,98537.91
2023-03-13T23:49:16.511Z,98546.78
2023-03-13T23:51:43.358Z,98546.78
2023-03-13T23:54:10.157Z,98550.41
2023-03-13T23:56:39.912Z,98538.03
2023-03-13T23:59:06.864Z,98505.34
